Time;durP1;ratioP1;P1;durP2;ratioP2;P2;SDS_P1;SDS_P2;PMS_P1;PMS_P2;Temp;Humidity;BMP_temperature;BMP_pressure;BME280_temperature;BME280_humidity;BME280_pressure;Samples;Min_cycle;Max_cycle;Signal;HPM_P1;HPM_P2
2023/05/29 00:01:31;;;;;;;14.40;6.00;;;;;;;8.69;100.00;102383.31;5050842;28;20851;-42
2023/05/29 00:03:59;;;;;;;14.50;5.43;;;;;;;8.66;100.00;102390.75;5057657;28;20427;-44
2023/05/29 00:06:29;;;;;;;17.80;5.73;;;;;;;8.70;100.00;102382.34;5058757;28;21010;-40
2023/05/29 00:08:57;;;;;;;21.43;6.50;;;;;;;8.63;100.00;102378.56;5059190;28;20474;-43
2023/05/29 00:11:25;;;;;;;16.33;5.77;;;;;;;8.65;100.00;102378.44;5059342;28;20435;-43
2023/05/29 00:13:52;;;;;;;27.70;5.30;;;;;;;8.62;100.00;102382.22;5058069;28;20427;-40
2023/05/29 00:16:20;;;;;;;12.00;5.73;;;;;;;8.59;100.00;102377.19;5059820;28;20470;-44
2023/05/29 00:18:48;;;;;;;14.27;5.33;;;;;;;8.59;100.00;102385.19;5059487;28;20430;-44
2023/05/29 00:21:16;;;;;;;12.63;5.13;;;;;;;8.60;100.00;102380.69;5059898;28;20954;-41
2023/05/29 00:23:45;;;;;;;8.37;5.40;;;;;;;8.62;100.00;102384.03;5058667;28;20741;-41
2023/05/29 00:26:16;;;;;;;20.87;5.90;;;;;;;8.58;100.00;102383.50;5059189;28;20463;-41
2023/05/29 00:29:03;;;;;;;12.87;4.30;;;;;;;8.53;100.00;102382.25;5057549;28;20527;-42
2023/05/29 00:31:31;;;;;;;13.87;5.17;;;;;;;8.51;100.00;102379.72;5059033;28;20949;-43
2023/05/29 00:34:23;;;;;;;12.90;4.83;;;;;;;8.43;100.00;102378.75;5058311;28;20609;-43
2023/05/29 00:36:52;;;;;;;25.40;6.30;;;;;;;8.44;100.00;102375.97;5059856;28;20499;-41
2023/05/29 00:39:21;;;;;;;16.07;5.37;;;;;;;8.43;100.00;102376.09;5059596;28;20474;-41
2023/05/29 00:42:10;;;;;;;30.83;5.67;;;;;;;8.41;100.00;102380.72;5055162;28;20466;-42
2023/05/29 00:44:37;;;;;;;11.73;5.20;;;;;;;8.38;100.00;102376.53;5058240;28;20498;-41
2023/05/29 00:47:06;;;;;;;14.30;5.53;;;;;;;8.33;100.00;102376.94;5060119;28;20432;-41
2023/05/29 00:49:36;;;;;;;14.40;6.10;;;;;;;8.30;100.00;102374.56;5059236;28;20879;-41
2023/05/29 00:52:06;;;;;;;18.57;6.23;;;;;;;8.29;100.00;102378.25;5058931;28;20412;-41
2023/05/29 00:54:36;;;;;;;14.80;5.10;;;;;;;8.25;100.00;102376.81;5058228;28;20513;-43
2023/05/29 00:57:26;;;;;;;30.93;8.27;;;;;;;8.22;100.00;102386.88;5056890;28;20478;-43
2023/05/29 00:59:56;;;;;;;17.03;6.27;;;;;;;8.15;100.00;102399.06;5059218;28;20466;-40
2023/05/29 01:02:24;;;;;;;16.97;5.90;;;;;;;8.15;100.00;102397.22;5058455;28;20436;-42
2023/05/29 01:05:11;;;;;;;12.93;6.43;;;;;;;8.11;100.00;102402.97;5058523;28;20515;-41
2023/05/29 01:07:39;;;;;;;20.93;7.00;;;;;;;8.13;100.00;102406.31;5059090;28;20790;-41
2023/05/29 01:10:10;;;;;;;20.13;5.60;;;;;;;8.08;100.00;102396.13;5058326;28;20714;-40
2023/05/29 01:12:44;;;;;;;15.43;6.30;;;;;;;8.08;100.00;102396.13;5058615;28;20400;-45
2023/05/29 01:15:22;;;;;;;11.03;5.63;;;;;;;8.04;100.00;102401.84;5058425;28;20542;-41
2023/05/29 01:18:08;;;;;;;13.97;6.37;;;;;;;8.05;100.00;102409.69;5060122;28;20462;-44
2023/05/29 01:20:41;;;;;;;14.27;6.47;;;;;;;8.03;100.00;102395.72;5062985;28;20552;-41
2023/05/29 01:23:28;;;;;;;22.33;6.90;;;;;;;8.03;100.00;102397.53;5061833;28;20477;-41
2023/05/29 01:26:25;;;;;;;15.07;6.40;;;;;;;8.02;100.00;102407.31;5060331;28;20462;-43
2023/05/29 01:28:58;;;;;;;15.23;5.60;;;;;;;7.99;100.00;102401.44;5062429;28;20407;-40
2023/05/29 01:31:28;;;;;;;15.77;5.60;;;;;;;7.98;100.00;102395.28;5042356;28;20742;-41
2023/05/29 01:34:10;;;;;;;18.17;6.93;;;;;;;7.99;100.00;102394.31;5046844;28;20471;-42
2023/05/29 01:36:38;;;;;;;12.73;5.33;;;;;;;7.96;100.00;102388.41;5062403;28;20475;-40
2023/05/29 01:39:06;;;;;;;13.50;5.30;;;;;;;7.95;100.00;102392.88;5062472;28;20436;-43
2023/05/29 01:41:35;;;;;;;27.27;7.10;;;;;;;7.96;100.00;102393.72;5061634;28;20897;-45
2023/05/29 01:44:09;;;;;;;19.43;7.27;;;;;;;7.98;100.00;102392.59;5061348;28;20431;-43
2023/05/29 01:46:38;;;;;;;15.60;6.23;;;;;;;7.99;100.00;102396.13;5062826;28;20416;-40
2023/05/29 01:49:07;;;;;;;14.47;5.57;;;;;;;7.97;100.00;102406.06;5061996;28;20436;-43
2023/05/29 01:51:35;;;;;;;20.27;5.97;;;;;;;8.01;100.00;102405.63;5062489;28;20431;-41
2023/05/29 01:54:03;;;;;;;13.60;6.30;;;;;;;7.97;100.00;102403.41;5060683;28;20712;-41
2023/05/29 01:56:31;;;;;;;23.23;7.30;;;;;;;7.98;100.00;102395.28;5062084;28;20514;-44
2023/05/29 01:59:01;;;;;;;10.30;5.90;;;;;;;7.99;100.00;102394.31;5061446;28;20502;-44
2023/05/29 02:01:31;;;;;;;18.23;6.63;;;;;;;7.94;100.00;102388.56;5061454;28;20514;-44
2023/05/29 02:03:59;;;;;;;14.70;5.97;;;;;;;7.94;100.00;102390.38;5060629;28;20525;-41
2023/05/29 02:06:27;;;;;;;13.10;5.30;;;;;;;7.88;100.00;102386.47;5045217;28;20933;-41
2023/05/29 02:08:55;;;;;;;15.30;6.60;;;;;;;7.92;100.00;102384.34;5042043;28;20435;-42
2023/05/29 02:11:23;;;;;;;18.97;6.73;;;;;;;7.87;100.00;102394.56;5041543;28;20439;-41
2023/05/29 02:13:51;;;;;;;20.40;6.70;;;;;;;7.89;100.00;102387.28;5041493;28;20489;-40
2023/05/29 02:16:20;;;;;;;16.93;5.87;;;;;;;7.90;100.00;102383.66;5041462;28;20503;-41
2023/05/29 02:18:49;;;;;;;14.77;5.80;;;;;;;7.85;100.00;102389.41;5041202;28;20949;-41
2023/05/29 02:21:17;;;;;;;18.43;6.00;;;;;;;7.93;100.00;102386.03;5041207;28;20439;-41
2023/05/29 02:23:44;;;;;;;33.10;6.00;;;;;;;7.93;100.00;102384.22;5042845;28;20500;-41
2023/05/29 02:26:13;;;;;;;17.17;6.03;;;;;;;7.99;100.00;102382.84;5060566;28;20562;-40
2023/05/29 02:28:41;;;;;;;15.10;6.10;;;;;;;7.97;100.00;102388.28;5061462;28;20426;-41
2023/05/29 02:31:09;;;;;;;23.03;7.40;;;;;;;7.92;100.00;102387.84;5061187;28;20467;-41
2023/05/29 02:33:36;;;;;;;23.30;6.40;;;;;;;7.89;100.00;102387.28;5060625;28;20769;-40
2023/05/29 02:36:11;;;;;;;16.77;6.10;;;;;;;7.87;100.00;102384.78;5060919;28;20455;-42
2023/05/29 02:38:39;;;;;;;19.60;6.00;;;;;;;7.91;100.00;102385.34;5061396;28;20451;-41
2023/05/29 02:41:07;;;;;;;9.20;5.40;;;;;;;7.94;100.00;102372.63;5060978;28;20526;-41
2023/05/29 02:43:35;;;;;;;15.67;6.00;;;;;;;7.95;100.00;102371.63;5060402;28;20859;-41
2023/05/29 02:46:03;;;;;;;17.00;5.50;;;;;;;7.95;100.00;102368.97;5060661;28;21021;-41
2023/05/29 02:48:31;;;;;;;27.23;6.50;;;;;;;7.95;100.00;102374.28;5060922;28;20932;-40
2023/05/29 02:50:58;;;;;;;9.80;5.93;;;;;;;7.94;100.00;102372.63;5060574;28;20497;-43
2023/05/29 02:53:27;;;;;;;16.93;5.90;;;;;;;7.95;100.00;102370.78;5061198;28;20484;-41
2023/05/29 02:55:55;;;;;;;8.60;6.20;;;;;;;7.92;100.00;102374.56;5040592;28;20871;-41
2023/05/29 02:58:23;;;;;;;9.53;6.00;;;;;;;7.90;100.00;102375.69;5040545;28;20487;-40
2023/05/29 03:00:52;;;;;;;14.43;5.20;;;;;;;7.90;100.00;102368.56;5040619;28;20479;-47
2023/05/29 03:03:46;;;;;;;17.23;6.20;;;;;;;7.93;100.00;102372.75;5042743;28;20444;-42
2023/05/29 03:06:16;;;;;;;18.63;5.30;;;;;;;7.94;100.00;102371.78;5060183;28;20845;-42
2023/05/29 03:08:46;;;;;;;19.83;6.27;;;;;;;7.97;100.00;102374.16;5060936;28;20432;-42
2023/05/29 03:11:15;;;;;;;14.27;4.93;;;;;;;8.01;100.00;102376.38;5060745;28;20420;-43
2023/05/29 03:13:43;;;;;;;24.07;6.27;;;;;;;8.06;100.00;102373.34;5060328;28;20427;-42
2023/05/29 03:16:10;;;;;;;18.20;5.77;;;;;;;8.12;100.00;102378.91;5060171;28;20474;-43
2023/05/29 03:18:38;;;;;;;18.83;5.87;;;;;;;8.21;100.00;102374.59;5060812;28;20475;-45
2023/05/29 03:21:06;;;;;;;21.53;5.83;;;;;;;8.29;100.00;102374.72;5060374;28;20459;-43
2023/05/29 03:23:34;;;;;;;14.03;5.83;;;;;;;8.38;100.00;102375.69;5059385;28;20470;-43
2023/05/29 03:26:03;;;;;;;13.50;5.60;;;;;;;8.49;100.00;102372.88;5059331;28;20487;-42
2023/05/29 03:28:31;;;;;;;14.00;6.20;;;;;;;8.55;100.00;102375.78;5060640;28;21002;-46
2023/05/29 03:30:59;;;;;;;16.20;6.33;;;;;;;8.60;100.00;102370.88;5060829;28;20435;-42
2023/05/29 03:33:26;;;;;;;19.43;6.70;;;;;;;8.67;100.00;102366.66;5059552;28;20944;-42
2023/05/29 03:35:55;;;;;;;16.80;6.20;;;;;;;8.78;100.00;102371.00;5057518;28;20883;-42
2023/05/29 03:38:23;;;;;;;20.33;6.00;;;;;;;8.90;100.00;102372.47;5059406;28;20467;-42
2023/05/29 03:40:50;;;;;;;19.03;5.97;;;;;;;8.99;100.00;102374.25;5058983;28;20514;-45
2023/05/29 03:43:19;;;;;;;14.13;5.50;;;;;;;9.13;100.00;102371.13;5058815;28;20488;-44
2023/05/29 03:45:47;;;;;;;14.37;5.30;;;;;;;9.21;100.00;102383.66;5059085;28;20467;-44
2023/05/29 03:48:33;;;;;;;19.20;7.67;;;;;;;9.32;100.00;102376.31;5060047;28;20857;-46
2023/05/29 03:51:00;;;;;;;22.40;6.60;;;;;;;9.48;100.00;102380.16;5059516;28;20489;-45
2023/05/29 03:53:28;;;;;;;15.43;5.90;;;;;;;9.65;100.00;102385.50;5058764;28;21161;-42
2023/05/29 03:56:11;;;;;;;19.83;7.43;;;;;;;9.82;100.00;102382.03;5054876;28;20475;-42
2023/05/29 03:58:40;;;;;;;18.57;6.10;;;;;;;10.00;100.00;102377.53;5059495;28;20474;-43
2023/05/29 04:01:27;;;;;;;11.87;5.53;;;;;;;10.28;100.00;102380.13;5059310;28;20527;-43
2023/05/29 04:03:55;;;;;;;18.57;6.23;;;;;;;10.33;100.00;102375.19;5056373;28;20474;-43
2023/05/29 04:06:23;;;;;;;23.77;7.47;;;;;;;10.46;100.00;102371.09;5059327;28;20489;-41
2023/05/29 04:08:51;;;;;;;18.17;7.00;;;;;;;10.71;100.00;102380.09;5060582;28;20434;-43
2023/05/29 04:11:20;;;;;;;19.43;5.80;;;;;;;10.94;100.00;102380.38;5059472;28;20423;-44
2023/05/29 04:13:50;;;;;;;18.00;7.20;;;;;;;11.09;100.00;102384.97;5059180;28;20435;-46
2023/05/29 04:16:18;;;;;;;16.40;5.80;;;;;;;11.13;100.00;102380.16;5058747;28;20490;-42
2023/05/29 04:18:45;;;;;;;16.70;6.80;;;;;;;11.22;100.00;102384.53;5059359;28;20821;-43
2023/05/29 04:21:13;;;;;;;14.87;6.60;;;;;;;11.32;100.00;102385.22;5060243;28;20438;-45
2023/05/29 04:23:41;;;;;;;13.00;6.90;;;;;;;11.56;100.00;102382.63;5059149;28;20481;-42
2023/05/29 04:26:10;;;;;;;18.80;7.03;;;;;;;12.04;100.00;102376.56;5058677;28;20497;-42
2023/05/29 04:28:57;;;;;;;20.80;7.33;;;;;;;12.41;100.00;102383.25;5058385;28;20435;-46
2023/05/29 04:31:26;;;;;;;16.33;6.47;;;;;;;12.66;100.00;102390.25;5039532;28;20910;-42
2023/05/29 04:33:55;;;;;;;17.07;6.40;;;;;;;12.66;100.00;102385.69;5042229;28;20518;-41
2023/05/29 04:36:25;;;;;;;17.00;7.57;;;;;;;12.73;100.00;102389.38;5058633;28;20439;-45
2023/05/29 04:38:53;;;;;;;15.93;5.40;;;;;;;13.03;100.00;102389.63;5059131;28;20513;-43
2023/05/29 04:41:40;;;;;;;13.20;5.37;;;;;;;13.13;100.00;102391.13;5058424;28;20440;-42
2023/05/29 04:44:11;;;;;;;17.93;6.77;;;;;;;13.47;100.00;102382.75;5058049;28;20431;-41
2023/05/29 04:46:39;;;;;;;26.13;7.37;;;;;;;13.75;100.00;102388.47;5059480;28;20497;-42
2023/05/29 04:49:07;;;;;;;19.90;7.23;;;;;;;14.14;100.00;102381.13;5059523;28;20439;-43
2023/05/29 04:51:36;;;;;;;16.60;6.57;;;;;;;14.43;100.00;102379.56;5059627;28;21003;-43
2023/05/29 04:54:04;;;;;;;19.03;7.10;;;;;;;14.90;100.00;102377.44;5061299;28;20488;-42
2023/05/29 04:56:32;;;;;;;18.23;6.83;;;;;;;15.54;100.00;102375.78;5063036;28;20442;-45
2023/05/29 04:59:00;;;;;;;19.70;7.20;;;;;;;16.15;93.50;102382.41;5061644;28;20546;-44
2023/05/29 05:01:29;;;;;;;13.23;6.83;;;;;;;16.82;92.08;102393.53;5060721;28;20431;-45
2023/05/29 05:03:57;;;;;;;15.27;6.63;;;;;;;16.96;82.89;102386.38;5059608;28;20431;-42
2023/05/29 05:06:25;;;;;;;21.10;7.60;;;;;;;17.72;83.41;102387.09;5045312;28;20431;-42
2023/05/29 05:08:53;;;;;;;16.83;6.70;;;;;;;18.35;76.95;102385.72;5041105;28;20427;-42
2023/05/29 05:11:21;;;;;;;18.80;6.83;;;;;;;18.66;65.55;102394.06;5043046;28;20443;-43
2023/05/29 05:13:49;;;;;;;16.20;6.53;;;;;;;19.05;64.56;102399.41;5043398;28;20430;-43
2023/05/29 05:16:18;;;;;;;17.63;7.63;;;;;;;19.30;64.70;102400.34;5061845;28;20446;-44
2023/05/29 05:18:47;;;;;;;17.80;8.10;;;;;;;19.77;62.64;102401.78;5061268;28;20465;-43
2023/05/29 05:21:15;;;;;;;17.07;7.00;;;;;;;19.80;61.30;102397.84;5061367;28;20469;-42
2023/05/29 05:23:42;;;;;;;17.30;7.30;;;;;;;20.12;61.85;102393.25;5060908;28;20498;-46
2023/05/29 05:26:25;;;;;;;20.70;7.70;;;;;;;20.55;60.44;102401.50;5061267;28;20538;-42
2023/05/29 05:28:53;;;;;;;17.83;7.00;;;;;;;20.68;56.94;102401.34;5060941;28;20427;-46
2023/05/29 05:31:22;;;;;;;12.03;6.20;;;;;;;21.08;60.02;102391.78;5021775;28;20432;-43
2023/05/29 05:33:51;;;;;;;15.37;6.40;;;;;;;20.87;53.07;102389.50;5026996;28;20796;-42
2023/05/29 05:36:19;;;;;;;13.83;7.53;;;;;;;20.89;54.44;102396.34;5061681;28;20510;-45
2023/05/29 05:38:47;;;;;;;16.93;7.43;;;;;;;20.46;54.87;102402.81;5061341;28;21018;-44
2023/05/29 05:41:14;;;;;;;16.93;7.50;;;;;;;20.89;53.69;102390.06;5060358;28;20970;-43
2023/05/29 05:43:42;;;;;;;18.10;7.33;;;;;;;21.38;51.94;102387.25;5060428;28;20502;-44
2023/05/29 05:46:10;;;;;;;15.93;7.03;;;;;;;20.83;55.65;102404.53;5061106;28;21041;-43
2023/05/29 05:48:38;;;;;;;11.90;7.40;;;;;;;20.09;54.00;102404.53;5061437;28;20489;-43
2023/05/29 05:51:07;;;;;;;19.73;7.43;;;;;;;19.78;54.35;102403.47;5060443;28;20774;-45
2023/05/29 05:53:34;;;;;;;12.60;6.20;;;;;;;19.33;56.15;102399.91;5059913;28;20451;-43
2023/05/29 05:56:02;;;;;;;17.53;7.07;;;;;;;19.10;55.89;102394.19;5061742;28;20526;-43
2023/05/29 05:58:30;;;;;;;16.37;7.10;;;;;;;18.99;57.91;102400.25;5060399;28;20471;-43
2023/05/29 06:00:58;;;;;;;22.63;8.27;;;;;;;18.47;59.32;102402.97;5062067;28;20860;-45
2023/05/29 06:03:26;;;;;;;13.13;6.77;;;;;;;18.87;59.76;102401.94;5059803;28;20498;-45
2023/05/29 06:05:54;;;;;;;16.47;6.53;;;;;;;18.63;59.93;102403.44;5020964;28;20470;-45
2023/05/29 06:08:52;;;;;;;17.87;6.30;;;;;;;19.16;58.98;102398.72;5020441;28;20433;-45
2023/05/29 06:11:20;;;;;;;16.70;7.47;;;;;;;19.21;61.12;102398.06;5021567;28;20447;-47
2023/05/29 06:13:48;;;;;;;18.00;7.00;;;;;;;19.25;58.01;102404.72;5026347;28;20469;-44
2023/05/29 06:16:15;;;;;;;14.33;6.90;;;;;;;19.06;59.75;102400.22;5060196;28;20461;-43
2023/05/29 06:18:44;;;;;;;16.63;6.70;;;;;;;18.68;60.82;102408.19;5060828;28;20473;-42
2023/05/29 06:21:13;;;;;;;21.13;6.90;;;;;;;18.21;65.72;102406.50;5060380;28;20430;-42
2023/05/29 06:23:41;;;;;;;21.33;7.23;;;;;;;18.25;64.04;102418.53;5059598;28;20427;-43
2023/05/29 06:26:11;;;;;;;13.87;7.13;;;;;;;18.63;62.97;102419.66;5059928;28;20836;-42
2023/05/29 06:28:39;;;;;;;15.90;7.27;;;;;;;19.01;59.01;102416.25;5060179;28;20418;-46
2023/05/29 06:31:06;;;;;;;14.13;6.23;;;;;;;18.86;59.75;102418.34;5060098;28;20955;-44
2023/05/29 06:33:34;;;;;;;12.63;6.10;;;;;;;18.74;62.17;102426.28;5059315;28;20430;-47
2023/05/29 06:36:02;;;;;;;14.93;6.40;;;;;;;18.62;61.70;102425.25;5059291;28;20984;-46
2023/05/29 06:38:30;;;;;;;12.97;6.93;;;;;;;18.95;61.64;102433.31;5059879;28;20529;-44
2023/05/29 06:40:58;;;;;;;14.37;6.60;;;;;;;19.26;58.99;102415.31;5060169;28;20504;-44
2023/05/29 06:43:44;;;;;;;20.90;7.30;;;;;;;18.93;59.84;102422.72;5056115;28;20453;-44
2023/05/29 06:46:12;;;;;;;12.60;6.60;;;;;;;18.32;61.26;102418.56;5059941;28;20979;-43
2023/05/29 06:48:40;;;;;;;17.50;6.83;;;;;;;18.35;62.24;102420.84;5059547;28;20461;-45
2023/05/29 06:51:25;;;;;;;15.33;6.63;;;;;;;18.98;59.51;102422.06;5059291;28;20516;-48
2023/05/29 06:53:52;;;;;;;13.70;6.53;;;;;;;19.51;59.62;102412.78;5059602;28;20457;-42
2023/05/29 06:56:20;;;;;;;11.03;6.53;;;;;;;20.08;55.81;102417.22;5059567;28;20439;-44
2023/05/29 06:58:49;;;;;;;14.70;7.30;;;;;;;20.53;53.02;102419.84;5060111;28;21022;-43
2023/05/29 07:01:32;;;;;;;15.93;7.43;;;;;;;20.27;53.81;102416.31;5059108;28;20471;-44
2023/05/29 07:04:00;;;;;;;18.00;7.30;;;;;;;19.56;55.61;102421.06;5058490;28;20980;-44
2023/05/29 07:06:28;;;;;;;13.93;7.00;;;;;;;19.12;56.28;102421.00;5043406;28;20428;-42
2023/05/29 07:08:56;;;;;;;18.60;7.33;;;;;;;19.41;56.81;102420.53;5040433;28;20523;-44
2023/05/29 07:11:25;;;;;;;12.50;7.20;;;;;;;19.77;53.88;102428.06;5038811;28;20436;-42
2023/05/29 07:13:54;;;;;;;12.30;6.07;;;;;;;19.50;54.65;102440.06;5046253;28;20431;-44
2023/05/29 07:16:22;;;;;;;12.97;5.83;;;;;;;19.85;53.81;102435.94;5039829;28;20465;-42
2023/05/29 07:18:52;;;;;;;14.43;7.10;;;;;;;20.01;53.54;102421.06;5040176;28;20775;-45
2023/05/29 07:21:20;;;;;;;14.23;6.30;;;;;;;20.32;52.57;102427.31;5039448;28;20526;-42
2023/05/29 07:23:47;;;;;;;12.87;6.50;;;;;;;20.82;54.67;102429.97;5038847;28;20508;-43
2023/05/29 07:26:15;;;;;;;13.83;7.60;;;;;;;21.11;52.48;102439.34;5048957;28;20470;-43
2023/05/29 07:28:43;;;;;;;15.23;7.60;;;;;;;21.52;50.89;102429.44;5058996;28;20430;-43
2023/05/29 07:31:12;;;;;;;15.30;6.57;;;;;;;21.31;50.99;102426.38;5059285;28;20423;-44
2023/05/29 07:33:40;;;;;;;12.40;7.13;;;;;;;20.42;49.31;102430.38;5058680;28;20789;-42
2023/05/29 07:36:08;;;;;;;14.87;8.33;;;;;;;20.56;50.76;102431.06;5057257;28;20459;-45
2023/05/29 07:38:36;;;;;;;11.97;6.20;;;;;;;20.51;48.70;102438.22;5059407;28;20458;-42
2023/05/29 07:41:03;;;;;;;12.17;6.93;;;;;;;20.13;49.83;102428.22;5059521;28;20784;-43
2023/05/29 07:43:31;;;;;;;13.40;6.60;;;;;;;20.05;52.51;102433.91;5058467;28;20430;-42
2023/05/29 07:45:59;;;;;;;13.70;7.37;;;;;;;20.42;52.25;102429.53;5058456;28;20470;-44
2023/05/29 07:48:29;;;;;;;13.37;6.00;;;;;;;20.33;53.46;102433.56;5059367;28;20486;-43
2023/05/29 07:50:56;;;;;;;13.00;5.60;;;;;;;19.99;51.90;102423.97;5058738;28;20446;-44
2023/05/29 07:53:24;;;;;;;13.30;6.33;;;;;;;19.47;52.15;102419.69;5058274;28;20774;-48
2023/05/29 07:55:52;;;;;;;14.97;6.10;;;;;;;18.71;55.03;102430.22;5058668;28;20459;-45
2023/05/29 07:58:20;;;;;;;15.30;7.17;;;;;;;18.90;55.29;102430.41;5059842;28;20435;-45
2023/05/29 08:00:48;;;;;;;13.90;6.83;;;;;;;19.12;54.53;102427.22;5059261;28;20955;-44
2023/05/29 08:03:16;;;;;;;13.27;6.67;;;;;;;19.10;54.73;102429.31;5058566;28;20771;-45
2023/05/29 08:05:45;;;;;;;12.83;6.60;;;;;;;18.78;54.34;102432.94;5056010;28;20533;-42
2023/05/29 08:08:13;;;;;;;11.63;5.90;;;;;;;18.23;55.75;102431.44;5059455;28;20521;-42
2023/05/29 08:10:41;;;;;;;12.67;6.63;;;;;;;18.55;58.51;102429.81;5058712;28;20541;-46
2023/05/29 08:13:09;;;;;;;8.83;5.47;;;;;;;18.31;57.76;102433.94;5058312;28;20929;-43
2023/05/29 08:15:36;;;;;;;12.27;6.60;;;;;;;18.11;59.10;102438.47;5058553;28;20462;-45
2023/05/29 08:18:04;;;;;;;11.97;6.20;;;;;;;17.34;61.30;102435.28;5058880;28;20581;-40
2023/05/29 08:20:34;;;;;;;12.23;6.10;;;;;;;17.32;60.99;102431.97;5058288;28;20501;-42
2023/05/29 08:23:03;;;;;;;14.00;6.40;;;;;;;17.39;60.25;102438.22;5058603;28;20442;-43
2023/05/29 08:25:30;;;;;;;10.23;6.20;;;;;;;17.26;61.63;102432.75;5058839;28;20489;-41
2023/05/29 08:27:58;;;;;;;13.67;6.30;;;;;;;17.47;61.60;102435.34;5046278;28;20431;-41
2023/05/29 08:30:26;;;;;;;8.70;5.20;;;;;;;17.38;62.46;102447.34;5042982;28;20522;-42
2023/05/29 08:32:53;;;;;;;10.60;5.60;;;;;;;17.50;61.34;102446.56;5043280;28;20408;-45
2023/05/29 08:35:22;;;;;;;9.53;6.20;;;;;;;17.74;61.10;102437.13;5055014;28;20466;-42
2023/05/29 08:37:49;;;;;;;13.27;5.40;;;;;;;18.00;57.50;102444.50;5063080;28;20434;-44
2023/05/29 08:40:18;;;;;;;8.07;4.93;;;;;;;17.77;54.65;102452.91;5063459;28;20474;-43
2023/05/29 08:42:48;;;;;;;11.97;5.03;;;;;;;17.54;57.38;102444.28;5062586;28;20795;-45
2023/05/29 08:45:19;;;;;;;10.43;5.63;;;;;;;17.55;58.01;102456.78;5062557;28;20466;-42
2023/05/29 08:47:52;;;;;;;9.17;5.17;;;;;;;17.66;55.03;102445.41;5062844;28;20415;-43
2023/05/29 08:50:20;;;;;;;16.20;5.63;;;;;;;17.44;56.22;102436.56;5050919;28;20916;-44
2023/05/29 08:52:48;;;;;;;7.60;5.23;;;;;;;17.57;56.69;102433.13;5061858;28;20434;-43
2023/05/29 08:55:16;;;;;;;11.90;5.70;;;;;;;17.06;57.44;102441.56;5060067;28;20467;-43
2023/05/29 08:57:45;;;;;;;10.13;5.10;;;;;;;17.21;61.84;102436.03;5061130;28;20480;-43
2023/05/29 09:00:15;;;;;;;7.07;5.33;;;;;;;17.26;57.83;102430.06;5062304;28;20474;-42
2023/05/29 09:02:44;;;;;;;10.47;5.03;;;;;;;17.48;58.88;102424.34;5062073;28;20928;-42
2023/05/29 09:05:13;;;;;;;11.50;5.73;;;;;;;17.02;56.91;102428.69;5050901;28;20915;-42
2023/05/29 09:07:41;;;;;;;12.87;5.80;;;;;;;17.09;56.46;102433.06;5041530;28;20456;-43
2023/05/29 09:10:10;;;;;;;9.13;4.93;;;;;;;17.30;55.82;102425.91;5041513;28;20435;-42
2023/05/29 09:12:39;;;;;;;8.63;5.30;;;;;;;17.33;56.58;102420.97;5041094;28;20460;-41
2023/05/29 09:15:18;;;;;;;13.63;6.43;;;;;;;17.30;58.58;102426.75;5053860;28;20542;-41
2023/05/29 09:17:50;;;;;;;11.47;5.90;;;;;;;17.38;55.22;102428.47;5060664;28;20407;-42
2023/05/29 09:20:22;;;;;;;7.03;5.70;;;;;;;17.32;54.62;102432.81;5060197;28;20550;-41
2023/05/29 09:22:54;;;;;;;9.80;5.53;;;;;;;17.27;54.22;102445.19;5061081;28;20505;-42
2023/05/29 09:25:23;;;;;;;10.00;5.50;;;;;;;17.36;53.93;102436.75;5061784;28;20538;-42
2023/05/29 09:27:53;;;;;;;8.20;5.73;;;;;;;17.71;55.36;102434.03;5060942;28;20466;-44
2023/05/29 09:30:35;;;;;;;9.20;6.30;;;;;;;18.00;58.41;102431.81;5061091;28;20510;-43
2023/05/29 09:33:03;;;;;;;8.93;5.03;;;;;;;18.08;54.00;102434.31;5061351;28;20413;-41
2023/05/29 09:35:38;;;;;;;9.27;5.73;;;;;;;18.14;51.98;102435.38;5059809;28;20844;-42
2023/05/29 09:38:07;;;;;;;11.40;5.90;;;;;;;18.18;52.70;102423.97;5058468;28;20521;-42
2023/05/29 09:40:37;;;;;;;7.77;5.80;;;;;;;18.13;54.90;102426.44;5061092;28;20897;-42
2023/05/29 09:43:07;;;;;;;9.37;5.33;;;;;;;18.29;54.46;102427.91;5060950;28;20427;-46
2023/05/29 09:45:40;;;;;;;13.47;6.10;;;;;;;18.88;53.59;102421.66;5060429;28;21186;-44
2023/05/29 09:48:09;;;;;;;5.90;4.90;;;;;;;18.64;54.51;102431.25;5060123;28;20459;-43
2023/05/29 09:50:37;;;;;;;9.43;5.00;;;;;;;18.33;51.85;102433.72;5059907;28;20521;-41
2023/05/29 09:53:17;;;;;;;7.00;5.13;;;;;;;18.21;53.86;102423.56;5059876;28;20936;-45
2023/05/29 09:55:46;;;;;;;10.00;5.60;;;;;;;18.42;50.94;102424.38;5060426;28;20462;-43
2023/05/29 09:58:14;;;;;;;9.30;5.33;;;;;;;18.82;51.26;102433.34;5060305;28;20865;-47
2023/05/29 10:00:43;;;;;;;12.20;4.83;;;;;;;18.91;50.57;102423.94;5060569;28;20832;-42
2023/05/29 10:03:12;;;;;;;10.57;5.20;;;;;;;19.02;48.17;102424.16;5060406;28;20512;-43
2023/05/29 10:05:40;;;;;;;5.90;4.97;;;;;;;18.87;47.51;102438.94;5059325;28;20528;-44
2023/05/29 10:08:11;;;;;;;7.27;4.60;;;;;;;18.84;47.42;102437.50;5059635;28;20526;-45
2023/05/29 10:10:42;;;;;;;12.90;5.23;;;;;;;19.00;52.08;102437.03;5060908;28;20498;-42
2023/05/29 10:13:13;;;;;;;9.13;5.20;;;;;;;18.95;50.22;102434.16;5060470;28;20446;-43
2023/05/29 10:15:42;;;;;;;7.67;5.20;;;;;;;19.02;48.17;102420.63;5059983;28;20549;-41
2023/05/29 10:18:19;;;;;;;6.67;5.07;;;;;;;19.31;51.20;102423.66;5061027;28;20439;-42
2023/05/29 10:20:51;;;;;;;5.10;4.60;;;;;;;19.33;47.85;102423.41;5060869;28;20455;-43
2023/05/29 10:23:22;;;;;;;10.80;5.00;;;;;;;19.43;46.58;102404.91;5059884;28;20465;-41
2023/05/29 10:25:53;;;;;;;8.73;5.43;;;;;;;18.90;46.50;102412.34;5054323;28;21017;-41
2023/05/29 10:28:23;;;;;;;10.73;5.10;;;;;;;19.09;48.26;102410.59;5052952;28;20812;-41
2023/05/29 10:30:55;;;;;;;11.20;5.77;;;;;;;19.08;49.89;102398.97;5060726;28;20407;-42
2023/05/29 10:33:54;;;;;;;9.10;5.70;;;;;;;19.25;50.67;102402.03;5059650;28;20416;-42
2023/05/29 10:36:24;;;;;;;6.40;4.30;;;;;;;19.45;47.10;102405.50;5019841;28;20969;-43
2023/05/29 10:38:53;;;;;;;6.83;4.20;;;;;;;19.90;44.97;102395.47;5020396;28;20440;-41
2023/05/29 10:41:34;;;;;;;8.30;5.00;;;;;;;19.69;48.04;102401.22;5020183;28;20495;-41
2023/05/29 10:44:02;;;;;;;7.90;5.33;;;;;;;19.74;47.59;102402.22;5028981;28;20430;-42
2023/05/29 10:47:08;;;;;;;6.13;4.70;;;;;;;19.54;46.84;102395.25;5060263;28;20447;-41
2023/05/29 10:49:37;;;;;;;7.37;4.50;;;;;;;19.26;47.79;102390.97;5059055;28;20470;-42
2023/05/29 10:52:06;;;;;;;7.83;4.03;;;;;;;19.27;47.09;102391.81;5059002;28;20427;-44
2023/05/29 10:54:53;;;;;;;7.57;4.10;;;;;;;19.06;47.13;102389.38;5059125;28;20558;-41
2023/05/29 10:57:24;;;;;;;7.37;4.40;;;;;;;19.05;43.95;102396.69;5060485;28;20415;-45
2023/05/29 11:00:11;;;;;;;6.97;4.43;;;;;;;19.34;42.94;102392.63;5060347;28;20450;-42
2023/05/29 11:02:40;;;;;;;5.53;3.97;;;;;;;19.61;45.78;102402.31;5058873;28;20557;-42
2023/05/29 11:05:25;;;;;;;6.37;4.27;;;;;;;19.66;44.86;102402.50;5052841;28;20471;-44
2023/05/29 11:07:54;;;;;;;6.77;3.80;;;;;;;19.03;43.18;102395.22;5040346;28;20439;-42
2023/05/29 11:10:44;;;;;;;5.37;4.87;;;;;;;19.83;43.93;102392.81;5040070;28;20430;-41
2023/05/29 11:13:24;;;;;;;5.60;4.87;;;;;;;20.02;39.86;102391.03;5039313;28;20439;-41
2023/05/29 11:16:06;;;;;;;11.63;5.13;;;;;;;19.96;44.01;102404.59;5058843;28;20463;-46
2023/05/29 11:18:40;;;;;;;6.53;4.50;;;;;;;20.14;40.25;102393.84;5060185;28;20907;-44
2023/05/29 11:21:23;;;;;;;7.10;5.07;;;;;;;20.32;41.12;102392.06;5059170;28;20447;-44
2023/05/29 11:23:51;;;;;;;9.50;5.40;;;;;;;20.56;44.26;102400.41;5059223;28;20434;-44
2023/05/29 11:26:20;;;;;;;4.90;3.97;;;;;;;20.25;39.65;102406.72;5058399;28;20479;-42
2023/05/29 11:28:48;;;;;;;9.03;5.30;;;;;;;20.42;41.11;102392.41;5059104;28;20488;-45
2023/05/29 11:31:16;;;;;;;6.37;4.97;;;;;;;20.55;38.75;102398.78;5059243;28;20888;-44
2023/05/29 11:33:48;;;;;;;9.60;5.40;;;;;;;20.29;42.53;102387.09;5058713;28;20788;-46
2023/05/29 11:36:19;;;;;;;4.73;4.20;;;;;;;20.09;41.23;102390.97;5058677;28;20546;-47